createdAt,value
2023-01-13T00:00:59.187Z,91.36
2023-01-13T00:01:59.200Z,90.46
2023-01-13T00:02:59.242Z,90.5
2023-01-13T00:03:59.240Z,90.89
2023-01-13T00:04:59.143Z,90.79
2023-01-13T00:05:59.272Z,90.7
2023-01-13T00:06:59.290Z,90.5
2023-01-13T00:07:59.328Z,90.75
2023-01-13T00:08:59.044Z,91.46
2023-01-13T00:09:59.361Z,90.46
2023-01-13T00:10:59.421Z,90.6
2023-01-13T00:11:59.379Z,90.84
2023-01-13T00:12:59.374Z,90.7
2023-01-13T00:13:59.387Z,90.75
2023-01-13T00:14:59.390Z,90.75
2023-01-13T00:15:59.579Z,90.7
2023-01-13T00:16:59.446Z,91.08
2023-01-13T00:17:59.461Z,90.89
2023-01-13T00:18:59.467Z,90.89
2023-01-13T00:19:59.241Z,90.5
2023-01-13T00:20:59.505Z,91.17
2023-01-13T00:21:59.509Z,91.17
2023-01-13T00:22:59.533Z,90.79
2023-01-13T00:23:59.558Z,91.08
2023-01-13T00:24:59.557Z,90.7
2023-01-13T00:25:59.583Z,91.27
2023-01-13T00:26:59.624Z,90.79
2023-01-13T00:27:59.637Z,90.98
2023-01-13T00:28:59.654Z,90.79
2023-01-13T00:29:59.839Z,90.6
2023-01-13T00:30:59.796Z,90.79
2023-01-13T00:31:59.671Z,90.75
2023-01-13T00:32:59.427Z,90.7
2023-01-13T00:33:59.713Z,90.84
2023-01-13T00:34:59.724Z,90.7
2023-01-13T00:35:59.746Z,90.75
2023-01-13T00:36:59.751Z,90.75
2023-01-13T00:37:59.782Z,90.75
2023-01-13T00:38:59.790Z,90.75
2023-01-13T00:39:59.802Z,90.79
2023-01-13T00:40:59.822Z,90.89
2023-01-13T00:41:59.825Z,90.79
2023-01-13T00:42:59.875Z,90.75
2023-01-13T00:43:59.901Z,90.79
2023-01-13T00:44:59.865Z,90.79
2023-01-13T00:45:59.649Z,90.75
2023-01-13T00:46:59.903Z,90.89
2023-01-13T00:47:59.921Z,90.79
2023-01-13T00:48:59.691Z,90.79
2023-01-13T00:49:59.693Z,90.98
2023-01-13T00:50:59.969Z,90.79
2023-01-13T00:52:00.018Z,90.79
2023-01-13T00:53:00.005Z,90.75
2023-01-13T00:54:00.010Z,90.79
2023-01-13T00:55:00.032Z,90.84
2023-01-13T00:56:00.081Z,90.7
2023-01-13T00:57:00.072Z,90.79
2023-01-13T00:57:59.827Z,90.79
2023-01-13T00:59:00.175Z,90.84
2023-01-13T01:00:00.164Z,90.89
2023-01-13T01:01:00.405Z,90.65
2023-01-13T01:02:00.443Z,90.65
2023-01-13T01:03:00.171Z,90.89
2023-01-13T01:04:00.220Z,90.79
2023-01-13T01:05:00.190Z,90.98
2023-01-13T01:05:59.958Z,90.6
2023-01-13T01:07:00.221Z,90.89
2023-01-13T01:08:00.252Z,90.89
2023-01-13T01:09:00.268Z,90.89
2023-01-13T01:10:00.259Z,90.79
2023-01-13T01:11:00.288Z,90.89
2023-01-13T01:12:00.303Z,90.65
2023-01-13T01:13:00.321Z,90.89
2023-01-13T01:14:00.344Z,90.84
2023-01-13T01:15:00.367Z,90.89
2023-01-13T01:16:00.528Z,90.98
2023-01-13T01:17:00.390Z,90.7
2023-01-13T01:18:00.399Z,90.65
2023-01-13T01:19:00.176Z,90.89
2023-01-13T01:20:00.438Z,90.84
2023-01-13T01:21:00.448Z,90.89
2023-01-13T01:22:00.459Z,90.89
2023-01-13T01:23:00.482Z,90.98
2023-01-13T01:24:00.513Z,90.7
2023-01-13T01:25:00.525Z,90.94
2023-01-13T01:26:00.524Z,90.79
2023-01-13T01:27:00.540Z,90.79
2023-01-13T01:28:00.554Z,90.79
2023-01-13T01:29:00.572Z,90.89
2023-01-13T01:30:00.639Z,90.98
2023-01-13T01:31:00.688Z,90.7
2023-01-13T01:32:00.640Z,90.7
2023-01-13T01:33:00.644Z,90.89
2023-01-13T01:34:00.663Z,90.98
2023-01-13T01:35:00.759Z,90.89
2023-01-13T01:36:00.693Z,90.6
2023-01-13T01:37:00.697Z,90.7
2023-01-13T01:38:00.708Z,90.98
2023-01-13T01:39:00.466Z,90.89
2023-01-13T01:40:00.754Z,90.89
2023-01-13T01:41:00.529Z,90.6
2023-01-13T01:42:00.518Z,90.89
2023-01-13T01:43:00.786Z,90.98
2023-01-13T01:44:00.803Z,90.75
2023-01-13T01:45:00.820Z,90.98
2023-01-13T01:46:00.852Z,90.79
2023-01-13T01:47:00.954Z,90.79
2023-01-13T01:48:00.906Z,90.98
2023-01-13T01:49:00.894Z,90.79
2023-01-13T01:50:00.911Z,90.79
2023-01-13T01:51:00.915Z,90.98
2023-01-13T01:52:00.942Z,90.89
2023-01-13T01:53:00.951Z,90.89
2023-01-13T01:54:00.973Z,90.98
2023-01-13T01:55:00.991Z,90.89
2023-01-13T01:56:01.000Z,91.08
2023-01-13T01:57:01.014Z,90.98
2023-01-13T01:58:01.024Z,90.89
2023-01-13T01:59:00.942Z,90.31
2023-01-13T02:00:01.095Z,90.22
2023-01-13T02:01:01.041Z,90.22
2023-01-13T02:02:01.392Z,90.22
2023-01-13T02:03:01.140Z,90.5
2023-01-13T02:04:01.136Z,90.31
2023-01-13T02:05:00.879Z,90.5
2023-01-13T02:06:01.148Z,90.31
2023-01-13T02:07:01.178Z,90.12
2023-01-13T02:08:01.185Z,90.12
2023-01-13T02:09:01.194Z,90.22
2023-01-13T02:10:01.226Z,90.22
2023-01-13T02:11:01.242Z,90.89
2023-01-13T02:12:01.244Z,90.41
2023-01-13T02:13:01.268Z,90.22
2023-01-13T02:14:01.293Z,90.22
2023-01-13T02:15:01.025Z,90.22
2023-01-13T02:16:01.462Z,90.22
2023-01-13T02:17:01.333Z,90.6
2023-01-13T02:18:01.356Z,90.6
2023-01-13T02:19:01.380Z,90.5
2023-01-13T02:20:01.414Z,90.89
2023-01-13T02:21:01.137Z,90.89
2023-01-13T02:22:01.405Z,90.41
2023-01-13T02:23:01.161Z,90.98
2023-01-13T02:24:01.449Z,90.31
2023-01-13T02:25:01.597Z,90.79
2023-01-13T02:26:01.619Z,90.22
2023-01-13T02:27:01.611Z,90.31
2023-01-13T02:28:01.685Z,90.22
2023-01-13T02:29:01.511Z,90.22
2023-01-13T02:30:01.581Z,90.41
2023-01-13T02:31:01.583Z,90.31
2023-01-13T02:32:01.329Z,90.31
2023-01-13T02:33:01.573Z,90.41
2023-01-13T02:34:01.620Z,90.22
2023-01-13T02:35:01.638Z,90.5
2023-01-13T02:36:01.657Z,90.41
2023-01-13T02:37:01.636Z,90.5
2023-01-13T02:38:01.683Z,90.41
2023-01-13T02:39:01.668Z,90.6
2023-01-13T02:40:01.686Z,90.6
2023-01-13T02:41:01.753Z,90.6
2023-01-13T02:42:01.717Z,90.31
2023-01-13T02:43:01.731Z,90.41
2023-01-13T02:44:01.747Z,90.41
2023-01-13T02:45:01.772Z,90.6
2023-01-13T02:46:01.836Z,90.41
2023-01-13T02:47:01.801Z,90.7
2023-01-13T02:48:01.857Z,90.41
2023-01-13T02:49:01.873Z,90.5
2023-01-13T02:50:02.005Z,90.41
2023-01-13T02:51:01.876Z,90.5
2023-01-13T02:52:01.910Z,90.03
2023-01-13T02:53:01.905Z,89.94
2023-01-13T02:54:01.913Z,89.94
2023-01-13T02:55:01.941Z,90.03
2023-01-13T02:56:01.967Z,90.03
2023-01-13T02:57:01.956Z,90.03
2023-01-13T02:58:01.997Z,90.31
2023-01-13T02:59:01.987Z,90.31
2023-01-13T03:00:02.176Z,90.31
2023-01-13T03:01:02.291Z,90.03
2023-01-13T03:02:02.472Z,90.12
2023-01-13T03:03:02.150Z,90.12
2023-01-13T03:04:02.089Z,90.31
2023-01-13T03:05:01.954Z,90.98
2023-01-13T03:06:02.133Z,90.31
2023-01-13T03:07:02.235Z,90.03
2023-01-13T03:08:02.177Z,89.84
2023-01-13T03:09:02.171Z,90.12
2023-01-13T03:10:02.200Z,90.22
2023-01-13T03:11:02.200Z,90.22
2023-01-13T03:12:02.237Z,90.12
2023-01-13T03:13:02.243Z,90.12
2023-01-13T03:14:02.250Z,90.12
2023-01-13T03:15:02.031Z,90.12
2023-01-13T03:16:02.290Z,90.79
2023-01-13T03:17:02.034Z,90.31
2023-01-13T03:18:02.070Z,90.22
2023-01-13T03:19:02.343Z,89.94
2023-01-13T03:20:02.925Z,90.03
2023-01-13T03:21:02.115Z,90.03
2023-01-13T03:22:02.380Z,89.75
2023-01-13T03:23:02.616Z,89.84
2023-01-13T03:24:02.439Z,89.46
2023-01-13T03:25:02.423Z,89.65
2023-01-13T03:26:02.501Z,89.94
2023-01-13T03:27:02.450Z,89.94
2023-01-13T03:28:02.208Z,90.03
2023-01-13T03:29:02.222Z,90.03
2023-01-13T03:30:02.543Z,90.03
2023-01-13T03:31:02.630Z,90.03
2023-01-13T03:32:02.545Z,89.94
2023-01-13T03:33:02.299Z,90.03
2023-01-13T03:34:02.584Z,90.03
2023-01-13T03:35:02.320Z,89.94
2023-01-13T03:36:02.341Z,89.65
2023-01-13T03:37:02.357Z,89.94
2023-01-13T03:38:02.366Z,90.03
2023-01-13T03:39:02.681Z,89.94
2023-01-13T03:40:02.425Z,90.03
2023-01-13T03:41:02.718Z,89.75
2023-01-13T03:42:02.436Z,89.84
2023-01-13T03:43:02.446Z,89.94
2023-01-13T03:44:02.925Z,90.31
2023-01-13T03:45:02.490Z,89.84
2023-01-13T03:46:03.001Z,89.84
2023-01-13T03:47:02.517Z,89.84
2023-01-13T03:48:02.880Z,90.22
2023-01-13T03:49:02.946Z,90.03
2023-01-13T03:50:02.605Z,90.03
2023-01-13T03:51:02.581Z,89.75
2023-01-13T03:52:02.964Z,89.94
2023-01-13T03:53:02.916Z,90.03
2023-01-13T03:54:02.979Z,90.12
2023-01-13T03:55:03.016Z,90.03
2023-01-13T03:56:03.017Z,90.03
2023-01-13T03:57:02.943Z,89.46
2023-01-13T03:58:03.020Z,90.31
2023-01-13T03:59:03.017Z,90.31
2023-01-13T04:00:03.021Z,90.03
2023-01-13T04:01:03.295Z,90.31
2023-01-13T04:02:03.357Z,90.12
2023-01-13T04:03:03.026Z,89.36
2023-01-13T04:04:03.167Z,90.03
2023-01-13T04:05:03.065Z,89.65
2023-01-13T04:06:03.065Z,90.22
2023-01-13T04:07:03.135Z,89.65
2023-01-13T04:08:02.997Z,89.65
2023-01-13T04:09:03.144Z,89.65
2023-01-13T04:10:04.503Z,89.84
2023-01-13T04:11:03.177Z,89.75
2023-01-13T04:12:03.201Z,89.75
2023-01-13T04:13:03.310Z,89.55
2023-01-13T04:14:03.196Z,89.65
2023-01-13T04:15:02.951Z,90.03
2023-01-13T04:16:03.401Z,89.75
2023-01-13T04:17:03.236Z,89.75
2023-01-13T04:18:03.251Z,89.75
2023-01-13T04:19:03.283Z,89.94
2023-01-13T04:20:03.479Z,89.07
2023-01-13T04:21:03.305Z,89.65
2023-01-13T04:22:03.069Z,89.84
2023-01-13T04:23:03.358Z,89.46
2023-01-13T04:24:03.355Z,89.75
2023-01-13T04:25:03.381Z,89.79
2023-01-13T04:26:03.390Z,89.65
2023-01-13T04:27:03.444Z,89.84
2023-01-13T04:28:03.194Z,89.84
2023-01-13T04:29:03.430Z,89.75
2023-01-13T04:30:03.206Z,89.84
2023-01-13T04:31:03.292Z,89.65
2023-01-13T04:32:03.496Z,90.03
2023-01-13T04:33:03.495Z,89.94
2023-01-13T04:34:03.540Z,89.36
2023-01-13T04:35:03.516Z,89.65
2023-01-13T04:36:03.287Z,89.46
2023-01-13T04:37:03.570Z,89.55
2023-01-13T04:38:03.346Z,89.41
2023-01-13T04:39:03.589Z,89.55
2023-01-13T04:40:03.344Z,89.61
2023-01-13T04:41:03.619Z,89.61
2023-01-13T04:42:03.463Z,89.7
2023-01-13T04:43:03.685Z,89.46
2023-01-13T04:44:03.709Z,89.61
2023-01-13T04:45:03.712Z,89.41
2023-01-13T04:46:03.794Z,89.26
2023-01-13T04:47:03.710Z,89.41
2023-01-13T04:48:03.718Z,89.07
2023-01-13T04:49:03.740Z,89.41
2023-01-13T04:50:03.766Z,89.22
2023-01-13T04:51:03.778Z,89.36
2023-01-13T04:52:03.822Z,89.46
2023-01-13T04:53:03.813Z,89.55
2023-01-13T04:54:03.820Z,89.51
2023-01-13T04:55:03.837Z,89.55
2023-01-13T04:56:03.859Z,89.55
2023-01-13T04:57:04.009Z,89.55
2023-01-13T04:58:03.882Z,89.26
2023-01-13T04:59:03.957Z,89.22
2023-01-13T05:00:03.968Z,89.32
2023-01-13T05:01:04.032Z,89.22
2023-01-13T05:02:04.150Z,89.41
2023-01-13T05:03:04.005Z,89.22
2023-01-13T05:04:03.970Z,89.51
2023-01-13T05:05:04.262Z,89.03
2023-01-13T05:06:04.010Z,89.22
2023-01-13T05:07:04.031Z,89.41
2023-01-13T05:08:04.039Z,89.22
2023-01-13T05:09:04.055Z,89.03
2023-01-13T05:10:03.809Z,88.84
2023-01-13T05:11:03.927Z,88.79
2023-01-13T05:12:04.150Z,88.84
2023-01-13T05:13:04.123Z,88.84
2023-01-13T05:14:03.882Z,88.84
2023-01-13T05:15:04.211Z,88.75
2023-01-13T05:16:06.542Z,89.03
2023-01-13T05:17:04.304Z,88.84
2023-01-13T05:18:04.201Z,88.65
2023-01-13T05:19:03.965Z,88.75
2023-01-13T05:20:04.690Z,88.93
2023-01-13T05:21:04.262Z,88.65
2023-01-13T05:22:04.283Z,88.56
2023-01-13T05:23:04.027Z,88.84
2023-01-13T05:24:04.308Z,88.84
2023-01-13T05:25:04.426Z,88.84
2023-01-13T05:26:04.065Z,88.84
2023-01-13T05:27:04.355Z,88.65
2023-01-13T05:28:04.357Z,88.46
2023-01-13T05:29:04.379Z,88.65
2023-01-13T05:30:04.442Z,88.46
2023-01-13T05:31:04.575Z,88.65
2023-01-13T05:32:04.462Z,88.75
2023-01-13T05:33:04.204Z,88.65
2023-01-13T05:34:04.457Z,88.56
2023-01-13T05:35:04.475Z,88.56
2023-01-13T05:36:04.485Z,88.65
2023-01-13T05:37:04.499Z,88.65
2023-01-13T05:38:04.534Z,88.93
2023-01-13T05:39:04.534Z,88.46
2023-01-13T05:40:04.554Z,88.56
2023-01-13T05:41:04.607Z,88.56
2023-01-13T05:42:04.594Z,88.65
2023-01-13T05:43:04.623Z,88.65
2023-01-13T05:44:04.617Z,88.65
2023-01-13T05:45:04.619Z,88.84
2023-01-13T05:46:04.869Z,88.65
2023-01-13T05:47:04.686Z,88.65
2023-01-13T05:48:04.710Z,88.75
2023-01-13T05:49:04.697Z,88.65
2023-01-13T05:50:04.715Z,88.75
2023-01-13T05:51:04.752Z,88.84
2023-01-13T05:52:04.476Z,88.75
2023-01-13T05:53:04.753Z,88.84
2023-01-13T05:54:04.791Z,88.56
2023-01-13T05:55:04.549Z,88.84
2023-01-13T05:56:04.799Z,88.84
2023-01-13T05:57:04.825Z,88.75
2023-01-13T05:58:04.822Z,88.46
2023-01-13T05:59:04.888Z,88.08
2023-01-13T06:00:04.620Z,88.37
2023-01-13T06:01:05.079Z,87.98
2023-01-13T06:02:04.881Z,87.89
2023-01-13T06:03:05.114Z,87.7
2023-01-13T06:04:05.076Z,87.98
2023-01-13T06:05:04.692Z,87.98
2023-01-13T06:06:04.958Z,87.98
2023-01-13T06:07:04.975Z,88.27
2023-01-13T06:08:05.007Z,88.27
2023-01-13T06:09:05.013Z,88.27
2023-01-13T06:10:05.023Z,88.08
2023-01-13T06:11:05.045Z,88.08
2023-01-13T06:12:05.073Z,87.6
2023-01-13T06:13:04.833Z,88.27
2023-01-13T06:14:05.094Z,87.98
2023-01-13T06:15:05.102Z,87.89
2023-01-13T06:16:05.077Z,88.37
2023-01-13T06:17:04.867Z,88.08
2023-01-13T06:18:05.173Z,88.27
2023-01-13T06:19:05.188Z,88.08
2023-01-13T06:20:05.602Z,88.37
2023-01-13T06:21:05.389Z,87.6
2023-01-13T06:22:05.390Z,87.6
2023-01-13T06:23:05.412Z,87.51
2023-01-13T06:24:05.365Z,88.08
2023-01-13T06:25:05.299Z,88.37
2023-01-13T06:26:05.411Z,87.98
2023-01-13T06:27:05.432Z,87.98
2023-01-13T06:28:05.405Z,87.98
2023-01-13T06:29:05.309Z,87.79
2023-01-13T06:30:05.341Z,88.08
2023-01-13T06:31:05.599Z,87.98
2023-01-13T06:32:05.421Z,88.18
2023-01-13T06:33:05.377Z,88.18
2023-01-13T06:34:05.394Z,87.89
2023-01-13T06:35:07.889Z,87.89
2023-01-13T06:36:05.499Z,87.89
2023-01-13T06:37:05.440Z,87.7
2023-01-13T06:38:05.446Z,87.7
2023-01-13T06:39:05.469Z,87.98
2023-01-13T06:40:05.233Z,87.89
2023-01-13T06:41:05.498Z,88.08
2023-01-13T06:42:05.507Z,88.08
2023-01-13T06:43:05.533Z,87.7
2023-01-13T06:44:05.291Z,88.08
2023-01-13T06:45:05.570Z,88.08
2023-01-13T06:46:05.607Z,88.08
2023-01-13T06:47:05.592Z,87.89
2023-01-13T06:48:05.348Z,87.79
2023-01-13T06:49:05.619Z,87.89
2023-01-13T06:50:05.376Z,88.18
2023-01-13T06:51:05.733Z,87.98
2023-01-13T06:52:05.710Z,87.98
2023-01-13T06:53:05.687Z,87.89
2023-01-13T06:54:05.444Z,88.27
2023-01-13T06:55:05.457Z,88.27
2023-01-13T06:56:05.743Z,87.89
2023-01-13T06:57:05.744Z,88.08
2023-01-13T06:58:05.756Z,88.27
2023-01-13T06:59:05.790Z,87.98
2023-01-13T07:00:05.807Z,88.18
2023-01-13T07:01:06.094Z,87.98
2023-01-13T07:02:06.090Z,88.08
2023-01-13T07:03:08.556Z,87.98
2023-01-13T07:04:05.851Z,87.98
2023-01-13T07:05:05.868Z,87.89
2023-01-13T07:06:05.617Z,87.6
2023-01-13T07:07:05.940Z,87.51
2023-01-13T07:08:05.952Z,87.6
2023-01-13T07:09:08.364Z,87.41
2023-01-13T07:10:05.939Z,87.6
2023-01-13T07:11:05.970Z,87.79
2023-01-13T07:12:05.985Z,87.6
2023-01-13T07:13:05.758Z,87.6
2023-01-13T07:14:06.026Z,87.32
2023-01-13T07:15:06.030Z,87.23
2023-01-13T07:16:06.232Z,87.6
2023-01-13T07:17:06.057Z,87.32
2023-01-13T07:18:06.078Z,87.23
2023-01-13T07:19:06.083Z,87.32
2023-01-13T07:20:06.300Z,87.41
2023-01-13T07:21:05.863Z,87.7
2023-01-13T07:22:06.124Z,87.51
2023-01-13T07:23:06.180Z,87.6
2023-01-13T07:24:06.187Z,87.41
2023-01-13T07:25:06.182Z,87.41
2023-01-13T07:26:06.194Z,87.6
2023-01-13T07:27:06.218Z,87.51
2023-01-13T07:28:06.236Z,87.23
2023-01-13T07:29:06.250Z,87.32
2023-01-13T07:30:06.406Z,87.6
2023-01-13T07:31:06.048Z,87.41
2023-01-13T07:32:06.459Z,87.23
2023-01-13T07:33:06.306Z,87.51
2023-01-13T07:34:06.068Z,87.51
2023-01-13T07:35:06.335Z,87.89
2023-01-13T07:36:06.363Z,87.03
2023-01-13T07:37:06.366Z,87.6
2023-01-13T07:38:06.404Z,87.13
2023-01-13T07:39:06.434Z,87.32
2023-01-13T07:40:06.459Z,87.23
2023-01-13T07:41:06.428Z,87.13
2023-01-13T07:42:06.451Z,87.13
2023-01-13T07:43:06.214Z,87.23
2023-01-13T07:44:06.473Z,87.32
2023-01-13T07:45:06.242Z,87.13
2023-01-13T07:46:06.388Z,87.23
2023-01-13T07:47:06.542Z,87.23
2023-01-13T07:48:06.307Z,87.32
2023-01-13T07:49:06.299Z,87.32
2023-01-13T07:50:06.588Z,87.6
2023-01-13T07:51:06.608Z,87.6
2023-01-13T07:52:06.619Z,87.13
2023-01-13T07:53:06.615Z,87.23
2023-01-13T07:54:06.651Z,87.6
2023-01-13T07:55:06.677Z,87.41
2023-01-13T07:56:06.697Z,87.6
2023-01-13T07:57:06.692Z,87.51
2023-01-13T07:58:06.706Z,87.41
2023-01-13T07:59:06.735Z,87.6
2023-01-13T08:00:06.732Z,87.03
2023-01-13T08:01:06.748Z,87.32
2023-01-13T08:02:07.206Z,87.23
2023-01-13T08:03:06.923Z,87.6
2023-01-13T08:04:06.800Z,87.23
2023-01-13T08:05:06.826Z,87.41
2023-01-13T08:06:06.830Z,87.51
2023-01-13T08:07:06.835Z,87.23
2023-01-13T08:08:06.861Z,87.32
2023-01-13T08:09:06.882Z,87.32
2023-01-13T08:10:06.905Z,87.41
2023-01-13T08:11:06.940Z,87.13
2023-01-13T08:12:07.004Z,87.13
2023-01-13T08:13:06.950Z,87.41
2023-01-13T08:14:06.965Z,87.23
2023-01-13T08:15:06.981Z,87.23
2023-01-13T08:16:07.019Z,87.32
2023-01-13T08:17:06.999Z,87.32
2023-01-13T08:18:07.027Z,87.41
2023-01-13T08:19:07.041Z,87.03
2023-01-13T08:20:07.604Z,87.23
2023-01-13T08:21:06.819Z,87.23
2023-01-13T08:22:07.097Z,87.23
2023-01-13T08:23:09.666Z,86.94
2023-01-13T08:24:07.119Z,87.23
2023-01-13T08:25:07.124Z,86.94
2023-01-13T08:26:07.136Z,87.51
2023-01-13T08:27:07.193Z,87.13
2023-01-13T08:28:07.212Z,87.32
2023-01-13T08:29:07.184Z,87.03
2023-01-13T08:30:07.252Z,87.13
2023-01-13T08:31:07.363Z,87.23
2023-01-13T08:32:07.248Z,86.94
2023-01-13T08:33:07.258Z,87.13
2023-01-13T08:34:07.270Z,87.03
2023-01-13T08:35:07.298Z,87.23
2023-01-13T08:36:07.307Z,87.13
2023-01-13T08:37:07.311Z,86.55
2023-01-13T08:38:07.084Z,87.23
2023-01-13T08:39:07.339Z,87.23
2023-01-13T08:40:07.372Z,87.13
2023-01-13T08:41:07.386Z,86.94
2023-01-13T08:42:07.395Z,86.84
2023-01-13T08:43:07.433Z,87.13
2023-01-13T08:44:07.473Z,87.03
2023-01-13T08:45:07.476Z,86.94
2023-01-13T08:46:07.738Z,87.03
2023-01-13T08:47:07.480Z,86.94
2023-01-13T08:48:07.489Z,87.03
2023-01-13T08:49:07.500Z,86.75
2023-01-13T08:50:07.510Z,87.03
2023-01-13T08:51:07.541Z,86.94
2023-01-13T08:52:07.295Z,87.03
2023-01-13T08:53:07.579Z,86.94
2023-01-13T08:54:07.601Z,87.03
2023-01-13T08:55:07.593Z,86.94
2023-01-13T08:56:07.612Z,86.84
2023-01-13T08:57:07.753Z,87.13
2023-01-13T08:58:17.733Z,87.03
2023-01-13T08:59:07.682Z,86.84
2023-01-13T09:00:07.704Z,87.03
2023-01-13T09:01:08.050Z,86.84
2023-01-13T09:02:08.136Z,86.94
2023-01-13T09:03:07.718Z,87.13
2023-01-13T09:04:07.789Z,86.84
2023-01-13T09:05:07.760Z,86.94
2023-01-13T09:06:07.527Z,86.84
2023-01-13T09:07:07.532Z,87.03
2023-01-13T09:08:07.804Z,86.84
2023-01-13T09:09:07.808Z,86.84
2023-01-13T09:10:07.837Z,86.94
2023-01-13T09:11:07.597Z,86.94
2023-01-13T09:12:07.866Z,86.55
2023-01-13T09:13:07.867Z,86.46
2023-01-13T09:14:07.645Z,86.55
2023-01-13T09:15:07.951Z,87.13
2023-01-13T09:16:08.096Z,87.23
2023-01-13T09:17:07.665Z,87.23
2023-01-13T09:18:07.955Z,87.03
2023-01-13T09:19:07.984Z,86.65
2023-01-13T09:20:08.187Z,86.55
2023-01-13T09:21:08.000Z,86.94
2023-01-13T09:22:08.021Z,86.84
2023-01-13T09:23:10.800Z,87.23
2023-01-13T09:24:08.043Z,86.84
2023-01-13T09:25:08.057Z,86.65
2023-01-13T09:26:08.073Z,86.84
2023-01-13T09:27:08.102Z,86.94
2023-01-13T09:28:08.281Z,86.94
2023-01-13T09:29:08.126Z,86.84
2023-01-13T09:30:08.179Z,86.94
2023-01-13T09:31:08.339Z,86.46
2023-01-13T09:32:08.216Z,86.55
2023-01-13T09:33:08.179Z,86.65
2023-01-13T09:34:08.220Z,86.65
2023-01-13T09:35:07.958Z,86.65
2023-01-13T09:36:08.239Z,87.23
2023-01-13T09:37:08.261Z,86.55
2023-01-13T09:38:08.276Z,86.46
2023-01-13T09:39:08.295Z,87.03
2023-01-13T09:40:08.292Z,86.18
2023-01-13T09:41:08.310Z,87.13
2023-01-13T09:42:08.331Z,87.03
2023-01-13T09:43:08.365Z,86.46
2023-01-13T09:44:08.358Z,86.65
2023-01-13T09:45:08.142Z,86.46
2023-01-13T09:46:08.312Z,86.55
2023-01-13T09:47:08.437Z,86.36
2023-01-13T09:48:08.624Z,86.65
2023-01-13T09:49:08.436Z,86.36
2023-01-13T09:50:08.533Z,86.55
2023-01-13T09:51:08.607Z,86.36
2023-01-13T09:52:08.482Z,86.55
2023-01-13T09:53:08.231Z,86.55
2023-01-13T09:54:08.512Z,86.55
2023-01-13T09:55:08.529Z,86.55
2023-01-13T09:56:08.539Z,86.36
2023-01-13T09:57:08.565Z,86.46
2023-01-13T09:58:10.885Z,86.65
2023-01-13T09:59:08.342Z,86.46
2023-01-13T10:00:08.605Z,86.84
2023-01-13T10:01:08.735Z,86.75
2023-01-13T10:02:08.641Z,86.84
2023-01-13T10:03:08.775Z,86.65
2023-01-13T10:04:11.591Z,86.46
2023-01-13T10:05:08.828Z,86.65
2023-01-13T10:06:08.453Z,86.65
2023-01-13T10:07:08.714Z,86.94
2023-01-13T10:08:08.775Z,86.84
2023-01-13T10:09:08.765Z,86.75
2023-01-13T10:10:11.755Z,86.55
2023-01-13T10:11:08.784Z,86.18
2023-01-13T10:12:08.800Z,86.75
2023-01-13T10:13:08.825Z,86.84
2023-01-13T10:14:08.845Z,86.65
2023-01-13T10:15:08.835Z,86.36
2023-01-13T10:16:09.091Z,86.36
2023-01-13T10:17:08.616Z,86.18
2023-01-13T10:18:08.892Z,86.46
2023-01-13T10:19:08.931Z,86.08
2023-01-13T10:20:09.307Z,86.27
2023-01-13T10:21:08.668Z,86.46
2023-01-13T10:22:11.655Z,86.27
2023-01-13T10:23:08.962Z,86.18
2023-01-13T10:24:08.976Z,86.27
2023-01-13T10:25:09.016Z,86.27
2023-01-13T10:26:09.165Z,86.27
2023-01-13T10:27:09.033Z,86.27
2023-01-13T10:28:09.042Z,86.27
2023-01-13T10:29:09.072Z,85.99
2023-01-13T10:30:09.093Z,86.36
2023-01-13T10:31:09.185Z,86.27
2023-01-13T10:32:09.127Z,86.27
2023-01-13T10:33:08.871Z,86.08
2023-01-13T10:34:09.132Z,86.08
2023-01-13T10:35:09.233Z,86.36
2023-01-13T10:36:09.186Z,86.08
2023-01-13T10:37:09.203Z,86.27
2023-01-13T10:38:09.197Z,86.46
2023-01-13T10:39:08.970Z,86.08
2023-01-13T10:40:09.222Z,86.36
2023-01-13T10:41:09.247Z,86.27
2023-01-13T10:42:09.255Z,86.18
2023-01-13T10:43:09.441Z,86.27
2023-01-13T10:44:12.062Z,85.7
2023-01-13T10:45:09.319Z,86.08
2023-01-13T10:46:09.484Z,86.27
2023-01-13T10:47:09.338Z,86.27
2023-01-13T10:48:09.095Z,86.36
2023-01-13T10:49:09.371Z,86.08
2023-01-13T10:50:11.869Z,85.89
2023-01-13T10:51:09.430Z,86.08
2023-01-13T10:52:09.519Z,86.27
2023-01-13T10:53:09.442Z,86.27
2023-01-13T10:54:09.475Z,86.27
2023-01-13T10:55:09.206Z,86.27
2023-01-13T10:56:09.228Z,86.27
2023-01-13T10:57:09.237Z,86.27
2023-01-13T10:58:09.255Z,86.36
2023-01-13T10:59:09.549Z,86.27
2023-01-13T11:00:09.545Z,86.27
2023-01-13T11:01:09.696Z,86.08
2023-01-13T11:02:27.265Z,86.18
2023-01-13T11:03:09.601Z,86.36
2023-01-13T11:04:09.617Z,86.55
2023-01-13T11:05:09.573Z,86.27
2023-01-13T11:06:09.637Z,86.27
2023-01-13T11:07:09.698Z,86.08
2023-01-13T11:08:09.704Z,86.27
2023-01-13T11:09:09.678Z,86.46
2023-01-13T11:10:09.734Z,86.27
2023-01-13T11:11:09.718Z,86.08
2023-01-13T11:12:09.758Z,86.18
2023-01-13T11:13:09.504Z,85.6
2023-01-13T11:14:11.658Z,85.7
2023-01-13T11:15:09.794Z,85.7
2023-01-13T11:16:09.883Z,85.6
2023-01-13T11:17:09.811Z,85.6
2023-01-13T11:18:09.565Z,86.08
2023-01-13T11:19:09.845Z,85.6
2023-01-13T11:20:09.661Z,85.99
2023-01-13T11:21:09.872Z,85.99
2023-01-13T11:22:09.908Z,85.6
2023-01-13T11:23:09.934Z,85.99
2023-01-13T11:24:09.951Z,85.99
2023-01-13T11:25:09.948Z,85.99
2023-01-13T11:26:09.982Z,85.41
2023-01-13T11:27:09.706Z,85.6
2023-01-13T11:28:09.986Z,85.7
2023-01-13T11:29:09.997Z,85.7
2023-01-13T11:30:10.082Z,85.7
2023-01-13T11:31:09.822Z,85.6
2023-01-13T11:32:10.107Z,85.6
2023-01-13T11:33:10.054Z,85.6
2023-01-13T11:34:10.103Z,85.41
2023-01-13T11:35:10.113Z,85.7
2023-01-13T11:36:10.124Z,85.6
2023-01-13T11:37:10.132Z,85.6
2023-01-13T11:38:10.146Z,86.08
2023-01-13T11:39:10.183Z,85.7
2023-01-13T11:40:10.208Z,85.7
2023-01-13T11:41:10.203Z,86.08
2023-01-13T11:42:10.228Z,85.99
2023-01-13T11:43:10.214Z,86.08
2023-01-13T11:44:09.972Z,86.08
2023-01-13T11:45:10.259Z,85.99
2023-01-13T11:46:10.268Z,86.18
2023-01-13T11:47:10.085Z,86.08
2023-01-13T11:48:10.301Z,86.08
2023-01-13T11:49:10.323Z,86.18
2023-01-13T11:50:10.336Z,86.18
2023-01-13T11:51:10.362Z,86.18
2023-01-13T11:52:10.114Z,85.6
2023-01-13T11:53:10.383Z,86.08
2023-01-13T11:54:10.404Z,86.08
2023-01-13T11:55:10.427Z,85.8
2023-01-13T11:56:10.461Z,85.6
2023-01-13T11:57:10.437Z,85.7
2023-01-13T11:58:10.460Z,85.99
2023-01-13T11:59:10.488Z,86.08
2023-01-13T12:00:10.496Z,85.8
2023-01-13T12:01:10.638Z,86.18
2023-01-13T12:02:10.588Z,86.18
2023-01-13T12:03:10.671Z,85.99
2023-01-13T12:04:10.552Z,85.6
2023-01-13T12:05:10.304Z,85.99
2023-01-13T12:06:10.580Z,86.46
2023-01-13T12:07:10.337Z,86.08
2023-01-13T12:08:10.606Z,85.99
2023-01-13T12:09:10.615Z,85.6
2023-01-13T12:10:15.648Z,85.99
2023-01-13T12:11:10.697Z,85.8
2023-01-13T12:12:10.464Z,85.99
2023-01-13T12:13:10.755Z,86.18
2023-01-13T12:14:10.730Z,85.7
2023-01-13T12:15:10.725Z,85.7
2023-01-13T12:16:10.939Z,85.7
2023-01-13T12:17:10.760Z,85.6
2023-01-13T12:18:10.760Z,85.6
2023-01-13T12:19:10.520Z,86.18
2023-01-13T12:20:10.987Z,85.6
2023-01-13T12:21:10.814Z,86.08
2023-01-13T12:22:10.826Z,85.99
2023-01-13T12:23:10.862Z,85.89
2023-01-13T12:24:10.874Z,85.51
2023-01-13T12:25:10.890Z,85.7
2023-01-13T12:26:10.888Z,85.8
2023-01-13T12:27:10.962Z,85.99
2023-01-13T12:28:10.944Z,85.7
2023-01-13T12:29:10.964Z,85.8
2023-01-13T12:30:10.973Z,85.8
2023-01-13T12:31:10.978Z,85.8
2023-01-13T12:32:10.981Z,85.99
2023-01-13T12:33:11.004Z,85.89
2023-01-13T12:34:11.034Z,85.7
2023-01-13T12:35:11.024Z,85.8
2023-01-13T12:36:11.051Z,85.51
2023-01-13T12:37:11.115Z,85.41
2023-01-13T12:38:11.077Z,85.51
2023-01-13T12:39:11.105Z,85.89
2023-01-13T12:40:11.104Z,85.13
2023-01-13T12:41:11.126Z,85.7
2023-01-13T12:42:10.883Z,85.51
2023-01-13T12:43:11.210Z,85.51
2023-01-13T12:44:10.937Z,85.6
2023-01-13T12:45:11.202Z,85.51
2023-01-13T12:46:11.287Z,85.6
2023-01-13T12:47:11.218Z,85.32
2023-01-13T12:48:10.969Z,85.6
2023-01-13T12:49:11.244Z,85.89
2023-01-13T12:50:11.005Z,85.41
2023-01-13T12:51:11.288Z,85.13
2023-01-13T12:52:11.311Z,84.94
2023-01-13T12:53:11.332Z,85.13
2023-01-13T12:54:11.064Z,85.51
2023-01-13T12:55:11.348Z,85.51
2023-01-13T12:56:11.356Z,85.51
2023-01-13T12:57:11.371Z,85.8